Wednesday, October 17, 2018, 4:16 AM EDT
Back to Local

KPQI, Presque Isle

Location: Presque Isle, ME, United States Lat: 46.683
Local Time: 4:16 AM EDT ( 8:16 GMT) Lon: -68.05
Time Zone: US/Eastern Elev: 534 ft

Show me the last for .
Show Decoded

2018-10-17 03:56 METAR KPQI 170756Z AUTO 20004KT 10SM SCT050 OVC070 01/M03 A2980 RMK AO2 SLP136
                 T00061028 FZRANO =
2018-10-17 02:56 METAR KPQI 170656Z AUTO 18005KT 10SM OVC048 01/M03 A2981 RMK AO2 SLP141
                 T00111028 FZRANO =
2018-10-17 01:56 METAR KPQI 170556Z AUTO 23004KT 10SM BKN050 00/M03 A2983 RMK AO2 SLP147
                 T00001033 10044 21006 58007 FZRANO =
2018-10-16 23:56 METAR KPQI 170356Z AUTO 22006KT 10SM CLR 02/M04 A2985 RMK AO2 SLP151 T00171039
                 FZRANO =
2018-10-16 22:56 METAR KPQI 170256Z AUTO 26006KT 10SM CLR 02/M04 A2985 RMK AO2 SLP154 T00221039
                 51012 FZRANO =
2018-10-16 21:56 METAR KPQI 170156Z AUTO 27009KT 10SM CLR 03/M04 A2985 RMK AO2 SLP153 T00331039 =
2018-10-16 20:56 METAR KPQI 170056Z AUTO 26010KT 220V280 10SM BKN046 04/M04 A2983 RMK AO2 SLP147
                 T00441039 =
2018-10-16 19:56 METAR KPQI 162356Z AUTO 26006KT 10SM OVC046 04/M03 A2982 RMK AO2 SLP143
                 T00391033 10083 20039 51017 =
2018-10-16 17:56 METAR KPQI 162156Z AUTO 28015G21KT 10SM SCT044 05/M04 A2980 RMK AO2 PK WND
                 29027/2143 SLP134 T00501039 =
2018-10-16 16:56 METAR KPQI 162056Z AUTO 28014G20KT 10SM FEW044 06/M03 A2977 RMK AO2 PK WND
                 29027/2039 SLP124 T00611033 51022 =
2018-10-16 15:56 METAR KPQI 161956Z AUTO 28014KT 10SM SCT050 08/M03 A2975 RMK AO2 SLP121
                 T00781033 =
2018-10-16 14:56 METAR KPQI 161856Z AUTO 28018G24KT 10SM BKN047 08/M03 A2973 RMK AO2 PK WND
                 28032/1821 SLP110 T00781033 =
2018-10-16 13:56 METAR KPQI 161756Z AUTO 27015G21KT 10SM BKN045 08/M02 A2970 RMK AO2 PK WND
                 27030/1704 SLP104 T00831022 10083 20044 51028 =
2018-10-16 12:56 METAR KPQI 161656Z AUTO 28022G31KT 10SM SCT045 08/M02 A2968 RMK AO2 PK WND
                 28031/1648 SLP096 T00781022 =
2018-10-16 11:56 METAR KPQI 161556Z AUTO 28018G31KT 10SM OVC039 08/M02 A2966 RMK AO2 PK WND
                 28038/1508 SLP087 T00781017 =
2018-10-16 10:56 METAR KPQI 161456Z AUTO 28026G30KT 10SM BKN037 07/M02 A2962 RMK AO2 PK WND
                 29036/1415 SLP075 T00671017 51035 =
2018-10-16 09:56 METAR KPQI 161356Z AUTO 28024G33KT 10SM OVC035 06/M02 A2961 RMK AO2 PK WND
                 28039/1331 SLP071 T00611017 =
2018-10-16 08:56 METAR KPQI 161256Z AUTO 27021G34KT 10SM OVC037 05/M02 A2955 RMK AO2 PK WND
                 27034/1254 SLP051 T00501017 =
2018-10-16 07:56 METAR KPQI 161156Z AUTO 27019G28KT 10SM OVC037 04/M02 A2951 RMK AO2 PK WND
                 25030/1111 RAB01E39 SLP039 P0000 60000 70018 T00441017 10111 20039 53024 =
2018-10-16 06:56 METAR KPQI 161056Z AUTO 26017G31KT 10SM BKN033 OVC046 04/M01 A2946 RMK AO2 PK
                 WND 23036/1013 SLP021 T00441011 =
2018-10-16 05:56 METAR KPQI 160956Z AUTO 26015G23KT 10SM FEW036 BKN043 BKN055 06/M02 A2944 RMK
                 AO2 PK WND 25028/0859 RAB36E47 SLP015 P0000 T00561017 =
2018-10-16 04:56 METAR KPQI 160856Z AUTO 26012G25KT 230V300 10SM SCT040 SCT047 BKN110 06/M01
                 A2944 RMK AO2 PK WND 25029/0818 SLP015 T00611006 55001 =

Support USWX by starting your Amazon purchase here.